createdAt,value
2017-08-24T00:02:17.275Z,8.73
2017-08-24T00:04:47.222Z,8.85
2017-08-24T00:07:16.964Z,7.72
2017-08-24T00:09:46.693Z,8.82
2017-08-24T00:12:16.283Z,9.32
2017-08-24T00:14:46.027Z,8.50
2017-08-24T00:17:15.841Z,8.88
2017-08-24T00:19:45.650Z,8.02
2017-08-24T00:22:15.383Z,12.65
2017-08-24T00:24:45.240Z,11.80
2017-08-24T00:27:15.122Z,8.07
2017-08-24T00:29:44.873Z,9.40
2017-08-24T00:32:14.681Z,8.20
2017-08-24T00:34:44.421Z,8.52
2017-08-24T00:37:14.379Z,8.98
2017-08-24T00:39:44.165Z,8.77
2017-08-24T00:42:13.941Z,8.70
2017-08-24T00:44:43.682Z,9.48
2017-08-24T00:47:13.706Z,8.30
2017-08-24T00:49:43.625Z,8.48
2017-08-24T00:52:13.351Z,8.70
2017-08-24T00:54:43.169Z,9.38
2017-08-24T00:57:12.881Z,8.63
2017-08-24T00:59:42.629Z,8.57
2017-08-24T01:02:12.009Z,7.40
2017-08-24T01:04:41.924Z,8.27
2017-08-24T01:07:11.724Z,8.40
2017-08-24T01:09:41.480Z,7.75
2017-08-24T01:12:11.201Z,7.97
2017-08-24T01:14:40.970Z,7.60
2017-08-24T01:17:10.709Z,9.05
2017-08-24T01:19:40.465Z,8.57
2017-08-24T01:22:10.189Z,9.55
2017-08-24T01:24:39.978Z,9.35
2017-08-24T01:27:09.361Z,8.93
2017-08-24T01:29:39.088Z,8.30
2017-08-24T01:32:08.975Z,8.57
2017-08-24T01:34:38.698Z,8.05
2017-08-24T01:37:08.431Z,8.85
2017-08-24T01:39:38.157Z,8.23
2017-08-24T01:42:07.871Z,8.52
2017-08-24T01:44:37.596Z,7.87
2017-08-24T01:47:07.328Z,8.88
2017-08-24T01:49:37.221Z,8.93
2017-08-24T01:52:07.059Z,7.40
2017-08-24T01:54:36.781Z,7.68
2017-08-24T01:57:06.513Z,7.45
2017-08-24T01:59:36.266Z,8.15
2017-08-24T02:02:05.998Z,8.90
2017-08-24T02:04:35.721Z,7.72
2017-08-24T02:07:05.440Z,7.30
2017-08-24T02:09:35.200Z,8.45
2017-08-24T02:12:04.604Z,8.18
2017-08-24T02:14:34.344Z,8.07
2017-08-24T02:17:04.256Z,8.82
2017-08-24T02:19:34.016Z,8.75
2017-08-24T02:22:03.745Z,7.68
2017-08-24T02:24:33.468Z,7.12
2017-08-24T02:27:03.467Z,8.13
2017-08-24T02:29:33.593Z,7.68
2017-08-24T02:32:03.309Z,8.40
2017-08-24T02:34:33.134Z,8.02
2017-08-24T02:37:02.837Z,7.62
2017-08-24T02:39:32.572Z,8.30
2017-08-24T02:42:02.297Z,8.23
2017-08-24T02:44:32.034Z,8.68
2017-08-24T02:47:01.590Z,8.40
2017-08-24T02:49:31.413Z,7.95
2017-08-24T02:52:01.188Z,8.10
2017-08-24T02:54:31.076Z,8.35
2017-08-24T02:57:00.801Z,7.78
2017-08-24T03:03:15.303Z,8.50
2017-08-24T03:05:45.580Z,8.52
2017-08-24T03:08:16.283Z,8.27
2017-08-24T03:10:45.659Z,9.43
2017-08-24T03:13:15.677Z,8.30
2017-08-24T03:15:45.399Z,9.40
2017-08-24T03:18:16.140Z,9.18
2017-08-24T03:20:48.558Z,9.65
2017-08-24T03:23:18.980Z,8.70
2017-08-24T03:25:50.322Z,8.63
2017-08-24T03:28:22.058Z,8.48
2017-08-24T03:30:51.806Z,8.63
2017-08-24T03:33:23.385Z,8.38
2017-08-24T03:35:54.089Z,8.60
2017-08-24T03:38:23.825Z,9.10
2017-08-24T03:40:53.569Z,8.75
2017-08-24T03:43:25.839Z,9.25
2017-08-24T03:45:56.521Z,9.20
2017-08-24T03:48:27.204Z,9.05
2017-08-24T03:50:57.383Z,9.00
2017-08-24T03:53:27.116Z,8.90
2017-08-24T03:55:59.490Z,9.57
2017-08-24T03:58:31.209Z,9.18
2017-08-24T04:01:00.944Z,8.10
2017-08-24T04:03:31.640Z,8.05
2017-08-24T04:06:01.904Z,9.80
2017-08-24T04:08:31.628Z,8.02
2017-08-24T04:11:01.357Z,8.95
2017-08-24T04:13:31.088Z,9.43
2017-08-24T04:16:01.268Z,9.77
2017-08-24T04:18:31.011Z,8.77
2017-08-24T04:21:02.900Z,8.32
2017-08-24T04:23:32.636Z,8.25
2017-08-24T04:26:03.377Z,8.45
2017-08-24T04:28:34.789Z,9.05
2017-08-24T04:31:04.525Z,8.23
2017-08-24T04:33:36.237Z,7.20
2017-08-24T04:36:05.968Z,8.07
2017-08-24T04:38:37.348Z,8.55
2017-08-24T04:41:07.057Z,8.63
2017-08-24T04:43:36.789Z,9.00
2017-08-24T04:46:07.549Z,10.50
2017-08-24T04:48:38.881Z,10.25
2017-08-24T04:51:09.067Z,8.35
2017-08-24T04:53:39.728Z,9.07
2017-08-24T04:56:10.025Z,10.13
2017-08-24T04:58:41.729Z,10.00
2017-08-24T05:01:11.493Z,8.98
2017-08-24T05:03:41.234Z,9.43
2017-08-24T05:06:10.993Z,9.30
2017-08-24T05:08:40.746Z,9.10
2017-08-24T05:11:11.310Z,9.38
2017-08-24T05:13:41.054Z,9.23
2017-08-24T05:16:10.789Z,9.18
2017-08-24T05:18:40.975Z,8.90
2017-08-24T05:21:11.641Z,8.95
2017-08-24T05:23:41.827Z,10.00
2017-08-24T05:26:11.561Z,9.20
2017-08-24T05:28:41.844Z,9.15
2017-08-24T05:31:11.577Z,9.57
2017-08-24T05:33:44.192Z,9.45
2017-08-24T05:36:15.604Z,9.63
2017-08-24T05:38:45.360Z,10.35
2017-08-24T05:41:15.117Z,9.23
2017-08-24T05:43:47.692Z,9.80
2017-08-24T05:46:18.121Z,9.75
2017-08-24T05:48:47.864Z,9.25
2017-08-24T05:51:18.045Z,9.52
2017-08-24T05:53:47.796Z,9.98
2017-08-24T05:56:19.504Z,10.05
2017-08-24T05:58:50.893Z,11.02
2017-08-24T06:01:20.465Z,10.95
2017-08-24T06:03:50.204Z,11.38
2017-08-24T06:06:21.572Z,11.93
2017-08-24T06:08:53.200Z,11.65
2017-08-24T06:11:23.320Z,12.83
2017-08-24T06:13:55.358Z,12.57
2017-08-24T06:16:26.052Z,13.25
2017-08-24T06:18:57.103Z,13.90
2017-08-24T06:21:27.460Z,12.40
2017-08-24T06:23:58.461Z,13.30
2017-08-24T06:26:27.912Z,16.90
2017-08-24T06:28:59.218Z,14.10
2017-08-24T06:31:30.745Z,15.90
2017-08-24T06:34:00.825Z,15.77
2017-08-24T06:36:30.285Z,20.67
2017-08-24T06:39:01.434Z,26.30
2017-08-24T06:41:30.718Z,31.37
2017-08-24T06:44:01.012Z,37.33
2017-08-24T06:46:30.473Z,34.77
2017-08-24T06:49:02.767Z,33.17
2017-08-24T06:51:33.801Z,40.73
2017-08-24T06:54:03.695Z,33.63
2017-08-24T06:56:33.693Z,28.07
2017-08-24T06:59:05.741Z,30.03
2017-08-24T07:01:35.031Z,30.83
2017-08-24T07:04:06.308Z,29.90
2017-08-24T07:06:36.782Z,29.03
2017-08-24T07:09:07.153Z,28.63
2017-08-24T07:11:37.568Z,28.60
2017-08-24T07:14:08.651Z,28.00
2017-08-24T07:16:38.100Z,26.73
2017-08-24T07:19:09.308Z,27.17
2017-08-24T07:21:40.796Z,28.70
2017-08-24T07:24:10.251Z,28.17
2017-08-24T07:26:40.389Z,25.80
2017-08-24T07:29:13.017Z,27.20
2017-08-24T07:31:43.419Z,25.90
2017-08-24T07:34:14.523Z,25.50
2017-08-24T07:36:44.045Z,23.50
2017-08-24T07:39:15.520Z,24.80
2017-08-24T07:41:45.924Z,24.33
2017-08-24T07:44:15.364Z,23.90
2017-08-24T07:46:48.650Z,24.80
2017-08-24T07:49:19.164Z,24.17
2017-08-24T07:51:51.518Z,24.10
2017-08-24T07:54:22.528Z,23.80
2017-08-24T07:56:53.467Z,24.37
2017-08-24T07:59:22.919Z,24.40
2017-08-24T08:01:54.353Z,27.07
2017-08-24T08:04:23.800Z,28.30
2017-08-24T08:06:53.777Z,27.50
2017-08-24T08:09:23.253Z,25.27
2017-08-24T08:11:53.264Z,25.47
2017-08-24T08:14:23.741Z,25.07
2017-08-24T08:16:54.853Z,23.93
2017-08-24T08:19:24.968Z,23.07
2017-08-24T08:21:56.200Z,21.60
2017-08-24T08:24:27.728Z,21.43
2017-08-24T08:26:58.740Z,19.00
2017-08-24T08:29:28.211Z,19.10
2017-08-24T08:31:57.788Z,18.70
2017-08-24T08:34:27.237Z,18.50
2017-08-24T08:36:58.582Z,19.90
2017-08-24T08:39:28.033Z,16.80
2017-08-24T08:41:58.025Z,18.47
2017-08-24T08:44:27.957Z,15.37
2017-08-24T08:46:58.653Z,17.23
2017-08-24T08:49:30.585Z,16.27
2017-08-24T08:52:00.060Z,18.43
2017-08-24T08:54:29.512Z,15.83
2017-08-24T08:57:01.493Z,15.73
2017-08-24T08:59:32.610Z,16.60
2017-08-24T09:02:03.079Z,14.30
2017-08-24T09:04:34.283Z,15.27
2017-08-24T09:07:03.809Z,13.53
2017-08-24T09:09:33.805Z,11.87
2017-08-24T09:12:03.824Z,10.90
2017-08-24T09:14:35.107Z,11.23
2017-08-24T09:17:05.414Z,11.67
2017-08-24T09:19:36.305Z,11.00
2017-08-24T09:22:07.388Z,11.00
2017-08-24T09:24:36.856Z,10.07
2017-08-24T09:27:08.235Z,10.80
2017-08-24T09:29:37.685Z,11.17
2017-08-24T09:32:08.616Z,9.47
2017-08-24T09:34:41.714Z,10.17
2017-08-24T09:37:11.163Z,9.80
2017-08-24T09:39:43.877Z,8.73
2017-08-24T09:42:14.283Z,8.40
2017-08-24T09:44:45.212Z,7.60
2017-08-24T09:47:16.684Z,6.77
2017-08-24T09:49:48.105Z,6.90
2017-08-24T09:52:17.688Z,5.97
2017-08-24T09:54:47.143Z,6.40
2017-08-24T09:57:18.384Z,5.77
2017-08-24T09:59:47.833Z,6.27
2017-08-24T10:02:19.245Z,7.00
2017-08-24T10:04:49.708Z,6.67
2017-08-24T10:07:20.899Z,6.03
2017-08-24T10:09:50.700Z,6.13
2017-08-24T10:12:21.431Z,6.17
2017-08-24T10:14:50.676Z,5.70
2017-08-24T10:17:20.792Z,7.03
2017-08-24T10:19:50.049Z,5.93
2017-08-24T10:22:21.531Z,6.40
2017-08-24T10:24:50.978Z,7.10
2017-08-24T10:27:22.273Z,6.90
2017-08-24T10:29:55.382Z,7.20
2017-08-24T10:32:25.022Z,8.53
2017-08-24T10:34:55.985Z,7.23
2017-08-24T10:37:26.934Z,7.70
2017-08-24T10:39:58.886Z,7.70
2017-08-24T10:42:31.146Z,9.40
2017-08-24T10:45:00.609Z,11.13
2017-08-24T10:47:32.573Z,13.50
2017-08-24T10:50:03.759Z,13.27
2017-08-24T10:52:33.229Z,13.97
2017-08-24T10:55:04.362Z,15.37
2017-08-24T10:57:33.801Z,16.10
2017-08-24T11:00:03.797Z,16.57
2017-08-24T11:02:34.280Z,16.63
2017-08-24T11:05:04.842Z,20.30
2017-08-24T11:07:34.848Z,18.00
2017-08-24T11:10:04.901Z,17.57
2017-08-24T11:12:34.807Z,16.87
2017-08-24T11:15:06.400Z,18.17
2017-08-24T11:17:37.192Z,15.60
2017-08-24T11:20:09.365Z,16.90
2017-08-24T11:22:40.600Z,10.70
2017-08-24T11:25:10.111Z,8.27
2017-08-24T11:27:41.096Z,8.00
2017-08-24T11:30:14.893Z,12.27
2017-08-24T11:32:46.896Z,11.90
2017-08-24T11:35:22.218Z,8.50
2017-08-24T11:38:00.563Z,11.27
2017-08-24T11:40:33.763Z,12.93
2017-08-24T11:43:09.036Z,13.17
2017-08-24T11:45:53.812Z,12.13
2017-08-24T11:48:28.755Z,12.97
2017-08-24T11:51:06.058Z,12.47
2017-08-24T11:53:40.629Z,12.63
2017-08-24T11:56:12.875Z,12.20
2017-08-24T11:58:51.823Z,12.30
2017-08-24T12:01:25.222Z,10.47
2017-08-24T12:04:09.857Z,11.17
2017-08-24T12:06:47.700Z,10.07
2017-08-24T12:09:24.955Z,9.67
2017-08-24T12:12:06.292Z,9.90
2017-08-24T12:14:42.070Z,9.80
2017-08-24T12:17:24.136Z,9.90
2017-08-24T12:20:14.412Z,12.43
2017-08-24T12:22:46.084Z,11.63
2017-08-24T12:25:22.858Z,11.30
2017-08-24T12:27:58.062Z,12.30
2017-08-24T12:30:36.519Z,12.77
2017-08-24T12:33:11.507Z,10.90
2017-08-24T12:35:47.610Z,8.97
2017-08-24T12:38:27.481Z,9.20
2017-08-24T12:41:06.832Z,8.43
2017-08-24T12:43:45.138Z,7.57
2017-08-24T12:46:17.464Z,8.00
2017-08-24T12:48:50.172Z,8.50
2017-08-24T12:51:30.863Z,8.50
2017-08-24T12:54:01.253Z,8.20
2017-08-24T12:56:34.442Z,5.93
2017-08-24T12:59:04.870Z,4.70
2017-08-24T13:01:34.116Z,4.67
2017-08-24T13:04:04.028Z,4.20
2017-08-24T13:06:33.493Z,3.97
2017-08-24T13:09:04.021Z,4.20
2017-08-24T13:11:35.392Z,4.03
2017-08-24T13:14:06.428Z,4.10
2017-08-24T13:16:37.671Z,3.97
2017-08-24T13:19:09.235Z,4.30
2017-08-24T13:21:39.074Z,4.07
2017-08-24T13:24:10.126Z,4.20
2017-08-24T13:26:42.199Z,4.30
2017-08-24T13:29:20.966Z,4.33
2017-08-24T13:31:53.970Z,4.30
2017-08-24T13:34:25.968Z,4.20
2017-08-24T13:36:57.073Z,4.20
2017-08-24T13:39:27.189Z,4.80
2017-08-24T13:41:57.803Z,4.30
2017-08-24T13:44:28.768Z,4.10
2017-08-24T13:46:58.744Z,4.27
2017-08-24T13:49:29.176Z,4.07
2017-08-24T13:51:59.585Z,4.67
2017-08-24T13:54:29.041Z,4.03
2017-08-24T13:56:58.953Z,4.03
2017-08-24T13:59:29.882Z,3.80
2017-08-24T14:02:00.785Z,4.13
2017-08-24T14:04:31.688Z,3.77
2017-08-24T14:07:02.527Z,4.20
2017-08-24T14:09:33.835Z,4.70
2017-08-24T14:12:05.719Z,3.90
2017-08-24T14:14:36.247Z,3.70
2017-08-24T14:17:07.040Z,4.17
2017-08-24T14:19:36.946Z,3.50
2017-08-24T14:22:06.935Z,4.13
2017-08-24T14:24:37.765Z,4.33
2017-08-24T14:27:07.548Z,4.13
2017-08-24T14:29:39.495Z,4.10
2017-08-24T14:32:10.357Z,4.13
2017-08-24T14:34:40.060Z,3.57
2017-08-24T14:37:10.038Z,3.47
2017-08-24T14:39:40.025Z,3.67
2017-08-24T14:42:09.788Z,3.47
2017-08-24T14:44:41.085Z,3.07
2017-08-24T14:47:10.325Z,3.50
2017-08-24T14:49:40.216Z,3.40
2017-08-24T14:52:11.235Z,3.10
2017-08-24T14:54:40.517Z,3.40
2017-08-24T14:57:13.771Z,3.50
2017-08-24T14:59:43.037Z,3.37
2017-08-24T15:02:14.180Z,3.53
2017-08-24T15:04:44.360Z,3.40
2017-08-24T15:07:15.704Z,3.47
2017-08-24T15:09:46.563Z,3.10
2017-08-24T15:12:17.753Z,3.17
2017-08-24T15:14:47.026Z,3.53
2017-08-24T15:17:17.054Z,3.67
2017-08-24T15:19:47.062Z,3.83
2017-08-24T15:22:16.827Z,3.80
2017-08-24T15:24:48.749Z,3.30
2017-08-24T15:27:20.597Z,2.93
2017-08-24T15:29:52.551Z,3.53
2017-08-24T15:32:24.405Z,3.57
2017-08-24T15:34:55.256Z,3.60
2017-08-24T15:37:24.504Z,3.70
2017-08-24T15:39:53.753Z,3.70
2017-08-24T15:42:24.741Z,4.43
2017-08-24T15:44:55.019Z,4.00
2017-08-24T15:47:24.294Z,4.00
2017-08-24T15:49:55.329Z,4.00
2017-08-24T15:52:25.019Z,3.90
2017-08-24T15:54:54.803Z,3.73
2017-08-24T15:57:25.747Z,3.83
2017-08-24T15:59:54.982Z,3.50
2017-08-24T16:02:24.241Z,3.87
2017-08-24T16:04:57.353Z,4.17
2017-08-24T16:07:26.582Z,5.03
2017-08-24T16:09:55.826Z,4.27
2017-08-24T16:12:26.648Z,3.67
2017-08-24T16:14:58.493Z,4.00
2017-08-24T16:17:29.425Z,4.00
2017-08-24T16:20:00.385Z,4.13
2017-08-24T16:22:30.184Z,3.87
2017-08-24T16:24:59.421Z,3.80
2017-08-24T16:27:28.660Z,3.97
2017-08-24T16:29:58.869Z,4.30
2017-08-24T16:32:29.723Z,3.87
2017-08-24T16:34:59.505Z,4.27
2017-08-24T16:37:31.521Z,3.57
2017-08-24T16:40:02.435Z,4.20
2017-08-24T16:42:32.649Z,4.13
2017-08-24T16:45:03.365Z,4.00
2017-08-24T16:47:33.613Z,3.90
2017-08-24T16:50:04.541Z,4.00
2017-08-24T16:52:37.425Z,4.60
2017-08-24T16:55:06.705Z,4.50
2017-08-24T16:57:35.940Z,4.30
2017-08-24T17:00:05.239Z,4.47
2017-08-24T17:02:34.475Z,4.20
2017-08-24T17:05:07.649Z,4.97
2017-08-24T17:07:37.882Z,7.47
2017-08-24T17:10:10.094Z,5.67
2017-08-24T17:12:42.093Z,5.27
2017-08-24T17:15:11.356Z,6.10
2017-08-24T17:17:42.623Z,6.17
2017-08-24T17:20:12.452Z,5.80
2017-08-24T17:22:42.468Z,5.27
2017-08-24T17:25:13.874Z,5.10
2017-08-24T17:27:47.197Z,5.00
2017-08-24T17:30:17.059Z,6.70
2017-08-24T17:32:47.248Z,6.00
2017-08-24T17:35:18.558Z,6.13
2017-08-24T17:37:49.457Z,7.00
2017-08-24T17:40:20.304Z,6.37
2017-08-24T17:42:50.006Z,7.00
2017-08-24T17:45:20.082Z,6.60
2017-08-24T17:47:49.993Z,7.60
2017-08-24T17:50:20.825Z,8.30
2017-08-24T17:52:51.796Z,7.77
2017-08-24T17:55:23.053Z,7.03
2017-08-24T17:57:54.228Z,9.60
2017-08-24T18:00:25.142Z,10.10
2017-08-24T18:02:56.025Z,7.73
2017-08-24T18:05:25.913Z,13.67
2017-08-24T18:07:57.028Z,8.70
2017-08-24T18:10:28.801Z,7.67
2017-08-24T18:12:58.784Z,7.40
2017-08-24T18:15:29.757Z,8.60
2017-08-24T18:18:01.605Z,7.83
2017-08-24T18:20:33.528Z,7.20
2017-08-24T18:23:04.439Z,7.20
2017-08-24T18:25:35.441Z,7.50
2017-08-24T18:28:04.718Z,8.67
2017-08-24T18:30:37.898Z,7.20
2017-08-24T18:33:08.835Z,8.20
2017-08-24T18:35:38.330Z,8.53
2017-08-24T18:38:07.598Z,8.10
2017-08-24T18:40:38.178Z,8.17
2017-08-24T18:43:07.423Z,8.67
2017-08-24T18:45:38.456Z,8.80
2017-08-24T18:48:08.258Z,9.17
2017-08-24T18:50:38.210Z,9.13
2017-08-24T18:53:07.452Z,10.27
2017-08-24T18:55:37.717Z,9.77
2017-08-24T18:58:08.869Z,9.40
2017-08-24T19:00:38.463Z,9.23
2017-08-24T19:03:09.497Z,9.40
2017-08-24T19:05:40.558Z,10.50
2017-08-24T19:08:12.263Z,8.90
2017-08-24T19:10:42.432Z,9.37
2017-08-24T19:13:12.144Z,8.40
2017-08-24T19:15:42.105Z,8.70
2017-08-24T19:18:12.107Z,9.77
2017-08-24T19:20:43.028Z,10.20
2017-08-24T19:25:57.137Z,9.20
2017-08-24T19:28:26.936Z,10.30
2017-08-24T19:30:56.925Z,10.90
2017-08-24T19:33:30.170Z,9.20
2017-08-24T19:35:59.993Z,10.50
2017-08-24T19:38:29.269Z,9.87
2017-08-24T19:40:58.743Z,9.70
2017-08-24T19:43:30.753Z,10.10
2017-08-24T19:46:00.220Z,10.80
2017-08-24T19:48:31.644Z,10.10
2017-08-24T19:51:02.165Z,10.23
2017-08-24T19:53:32.144Z,12.33
2017-08-24T19:56:04.289Z,10.77
2017-08-24T19:58:35.136Z,11.97
2017-08-24T20:01:05.053Z,10.63
2017-08-24T20:03:34.507Z,10.77
2017-08-24T20:06:05.669Z,11.47
2017-08-24T20:08:36.172Z,11.57
2017-08-24T20:11:05.948Z,11.27
2017-08-24T20:13:38.064Z,11.40
2017-08-24T20:16:09.105Z,10.83
2017-08-24T20:18:41.493Z,10.97
2017-08-24T20:21:13.008Z,10.57
2017-08-24T20:23:42.997Z,10.50
2017-08-24T20:26:12.725Z,10.80
2017-08-24T20:28:42.836Z,10.00
2017-08-24T20:31:12.310Z,11.63
2017-08-24T20:33:42.343Z,11.20
2017-08-24T20:36:12.822Z,11.40
2017-08-24T20:38:43.912Z,10.93
2017-08-24T20:41:15.058Z,13.53
2017-08-24T20:43:46.049Z,11.93
2017-08-24T20:46:16.592Z,11.53
2017-08-24T20:48:49.709Z,12.03
2017-08-24T20:51:19.197Z,10.77
2017-08-24T20:53:49.640Z,11.83
2017-08-24T20:56:20.652Z,11.53
2017-08-24T20:58:52.109Z,11.90
2017-08-24T21:01:23.492Z,11.27
2017-08-24T21:03:53.409Z,12.00
2017-08-24T21:06:24.737Z,12.30
2017-08-24T21:08:54.215Z,11.40
2017-08-24T21:11:25.731Z,11.53
2017-08-24T21:13:55.218Z,11.00
2017-08-24T21:16:25.703Z,11.13
2017-08-24T21:18:57.796Z,10.87
2017-08-24T21:21:27.251Z,11.80
2017-08-24T21:23:59.700Z,11.63
2017-08-24T21:26:29.177Z,10.37
2017-08-24T21:29:01.387Z,11.40
2017-08-24T21:31:30.893Z,11.00
2017-08-24T21:34:00.897Z,11.43
2017-08-24T21:36:33.878Z,11.17
2017-08-24T21:39:03.145Z,11.90
2017-08-24T21:41:32.612Z,12.23
2017-08-24T21:44:03.003Z,10.50
2017-08-24T21:46:34.289Z,10.70
2017-08-24T21:49:03.748Z,11.97
2017-08-24T21:51:35.184Z,11.97
2017-08-24T21:54:04.641Z,11.53
2017-08-24T21:56:35.752Z,11.43
2017-08-24T21:59:05.046Z,9.70
2017-08-24T22:01:36.665Z,9.57
2017-08-24T22:04:06.129Z,9.37
2017-08-24T22:06:36.547Z,7.30
2017-08-24T22:09:06.513Z,7.30
2017-08-24T22:11:37.421Z,8.50
2017-08-24T22:14:08.832Z,5.63
2017-08-24T22:16:39.230Z,5.57
2017-08-24T22:19:09.652Z,4.73
2017-08-24T22:21:41.960Z,5.20
2017-08-24T22:24:13.269Z,4.43
2017-08-24T22:26:43.173Z,3.77
2017-08-24T22:29:16.094Z,3.83
2017-08-24T22:31:46.487Z,3.90
2017-08-24T22:34:17.940Z,3.37
2017-08-24T22:36:47.396Z,3.03
2017-08-24T22:39:18.872Z,2.93
2017-08-24T22:41:48.332Z,2.73
2017-08-24T22:44:18.523Z,2.50
2017-08-24T22:46:49.531Z,2.37
2017-08-24T22:49:20.840Z,2.30
2017-08-24T22:51:51.334Z,2.00
2017-08-24T22:54:28.964Z,1.93
2017-08-24T22:57:05.737Z,2.10
2017-08-24T22:59:41.709Z,1.73
2017-08-24T23:02:17.233Z,1.90
2017-08-24T23:04:47.664Z,2.00
2017-08-24T23:07:18.624Z,1.60
2017-08-24T23:09:48.096Z,1.90
2017-08-24T23:12:19.420Z,2.30
2017-08-24T23:14:49.531Z,1.63
2017-08-24T23:17:19.417Z,1.80
2017-08-24T23:19:48.684Z,1.47
2017-08-24T23:22:20.716Z,1.73
2017-08-24T23:24:51.432Z,1.60
2017-08-24T23:27:22.707Z,1.33
2017-08-24T23:29:52.194Z,1.30
2017-08-24T23:32:23.345Z,1.60
2017-08-24T23:34:53.247Z,1.50
2017-08-24T23:37:22.681Z,1.40
2017-08-24T23:39:54.772Z,1.53
2017-08-24T23:42:26.164Z,1.70
2017-08-24T23:44:55.613Z,2.00
2017-08-24T23:47:26.716Z,1.20
2017-08-24T23:49:57.604Z,1.93
2017-08-24T23:52:27.597Z,1.87
2017-08-24T23:54:57.061Z,1.80
2017-08-24T23:57:26.312Z,1.33
2017-08-24T23:59:56.257Z,1.73
